createdAt,value
2019-06-10T15:45:49.930Z,23.71
2019-06-10T15:46:52.278Z,23.71
2019-06-10T15:47:49.852Z,23.65
2019-06-10T15:48:49.872Z,23.63
2019-06-10T15:49:52.424Z,23.54
2019-06-10T15:50:49.813Z,23.51
2019-06-10T15:51:52.556Z,23.34
2019-06-10T15:52:52.258Z,23.32
2019-06-10T15:53:49.800Z,23.36
2019-06-10T15:54:49.803Z,23.36
2019-06-10T15:56:12.178Z,23.41
2019-06-10T15:56:56.233Z,23.40
2019-06-10T15:57:50.750Z,23.36
2019-06-10T15:58:52.045Z,23.34
2019-06-10T15:59:52.027Z,23.50
2019-06-10T16:00:49.705Z,23.58
2019-06-10T16:01:49.774Z,23.55
2019-06-10T16:02:50.408Z,23.61
2019-06-10T16:03:49.698Z,23.71
2019-06-10T16:04:49.710Z,23.76
2019-06-10T16:05:52.480Z,23.77
2019-06-10T16:06:49.626Z,23.80
2019-06-10T16:07:49.651Z,23.65
2019-06-10T16:08:49.625Z,23.74
2019-06-10T16:09:49.626Z,23.69
2019-06-10T16:10:52.255Z,23.71
2019-06-10T16:11:49.605Z,23.58
2019-06-10T16:12:49.596Z,23.65
2019-06-10T16:13:49.622Z,23.55
2019-06-10T16:14:52.645Z,23.40
2019-06-10T16:15:53.317Z,23.28
2019-06-10T16:16:49.552Z,23.40
2019-06-10T16:17:49.535Z,23.43
2019-06-10T16:18:49.484Z,23.40
2019-06-10T16:19:49.502Z,23.32
2019-06-10T16:20:49.492Z,23.25
2019-06-10T16:21:49.536Z,23.28
2019-06-10T16:22:52.165Z,23.25
2019-06-10T16:23:49.488Z,23.13
2019-06-10T16:24:49.519Z,23.15
2019-06-10T16:25:49.511Z,22.99
2019-06-10T16:26:49.444Z,22.96
2019-06-10T16:27:51.739Z,22.75
2019-06-10T16:28:52.214Z,22.66
2019-06-10T16:29:49.428Z,22.60
2019-06-10T16:30:49.947Z,22.66
2019-06-10T16:31:49.495Z,22.62
2019-06-10T16:32:52.837Z,22.68
2019-06-10T16:33:49.731Z,22.68
2019-06-10T16:34:49.342Z,22.65
2019-06-10T16:35:49.339Z,22.66
2019-06-10T16:36:49.354Z,22.76
2019-06-10T16:37:49.370Z,22.68
2019-06-10T16:38:49.327Z,22.73
2019-06-10T16:39:49.313Z,22.80
2019-06-10T16:40:49.295Z,22.85
2019-06-10T16:41:49.271Z,22.88
2019-06-10T16:42:49.220Z,22.84
2019-06-10T16:43:49.383Z,22.83
2019-06-10T16:44:49.231Z,22.88
2019-06-10T16:45:49.247Z,22.90
2019-06-10T16:46:49.270Z,22.91
2019-06-10T16:47:49.235Z,22.94
2019-06-10T16:48:49.207Z,22.88
2019-06-10T16:49:49.184Z,22.88
2019-06-10T16:50:49.194Z,22.93
2019-06-10T16:51:52.143Z,22.84
2019-06-10T16:52:49.154Z,22.83
2019-06-10T16:53:49.108Z,22.84
2019-06-10T16:54:49.165Z,22.75
2019-06-10T16:55:49.120Z,22.69
2019-06-10T16:56:52.298Z,22.66
2019-06-10T16:57:58.822Z,22.70
2019-06-10T16:58:52.327Z,22.65
2019-06-10T16:59:49.096Z,22.59
2019-06-10T17:00:49.116Z,22.59
2019-06-10T17:01:49.045Z,22.50
2019-06-10T17:02:52.919Z,22.53
2019-06-10T17:03:49.086Z,22.47
2019-06-10T17:04:48.988Z,22.26
2019-06-10T17:05:49.054Z,22.15
2019-06-10T17:06:49.055Z,22.06
2019-06-10T17:07:49.018Z,22.08
2019-06-10T17:08:49.039Z,22.00
2019-06-10T17:09:49.000Z,21.91
2019-06-10T17:10:48.962Z,21.88
2019-06-10T17:11:49.011Z,21.80
2019-06-10T17:12:48.945Z,21.77
2019-06-10T17:13:48.951Z,21.76
2019-06-10T17:14:48.927Z,21.64
2019-06-10T17:15:48.911Z,21.67
2019-06-10T17:16:52.781Z,21.76
2019-06-10T17:17:49.003Z,21.73
2019-06-10T17:18:48.861Z,21.73
2019-06-10T17:19:48.855Z,21.67
2019-06-10T17:20:48.852Z,21.66
2019-06-10T17:21:48.896Z,21.62
2019-06-10T17:22:48.860Z,21.57
2019-06-10T17:23:48.823Z,21.54
2019-06-10T17:24:48.800Z,21.55
2019-06-10T17:25:48.831Z,21.46
2019-06-10T17:26:48.914Z,21.50
2019-06-10T17:27:48.753Z,21.50
2019-06-10T17:28:48.784Z,21.37
2019-06-10T17:29:48.785Z,21.33
2019-06-10T17:30:48.765Z,21.43
2019-06-10T17:31:48.804Z,21.45
2019-06-10T17:32:48.715Z,21.27
2019-06-10T17:33:48.739Z,21.32
2019-06-10T17:34:48.757Z,21.29
2019-06-10T17:35:48.697Z,21.24
2019-06-10T17:36:50.435Z,21.22
2019-06-10T17:37:48.659Z,21.18
2019-06-10T17:38:48.622Z,21.17
2019-06-10T17:39:49.544Z,21.14
2019-06-10T17:40:48.690Z,21.11
2019-06-10T17:41:48.700Z,21.15
2019-06-10T17:42:48.655Z,21.03
2019-06-10T17:43:49.483Z,21.03
2019-06-10T17:44:49.600Z,20.97
2019-06-10T17:45:48.576Z,21.05
2019-06-10T17:46:48.640Z,20.95
2019-06-10T17:47:48.748Z,20.96
2019-06-10T17:48:48.535Z,20.97
2019-06-10T17:49:48.503Z,20.93
2019-06-10T17:50:48.532Z,20.93
2019-06-10T17:51:48.517Z,20.93
2019-06-10T17:52:48.503Z,20.93
2019-06-10T17:53:48.591Z,20.90
2019-06-10T17:54:49.530Z,20.93
2019-06-10T17:55:48.481Z,20.84
2019-06-10T17:56:48.495Z,20.84
2019-06-10T17:57:48.460Z,20.81
2019-06-10T17:58:57.007Z,20.87
2019-06-10T17:59:52.373Z,20.84
2019-06-10T18:00:48.442Z,20.72
2019-06-10T18:01:48.407Z,20.80
2019-06-10T18:02:48.480Z,20.66
2019-06-10T18:03:48.379Z,20.75
2019-06-10T18:04:48.372Z,20.74
2019-06-10T18:05:48.414Z,20.74
2019-06-10T18:06:48.356Z,20.66
2019-06-10T18:07:48.357Z,20.60
2019-06-10T18:08:48.292Z,20.59
2019-06-10T18:09:48.339Z,20.51
2019-06-10T18:10:48.269Z,20.59
2019-06-10T18:11:48.262Z,20.56
2019-06-10T18:12:49.078Z,20.51
2019-06-10T18:13:48.272Z,20.50
2019-06-10T18:14:48.236Z,20.47
2019-06-10T18:15:48.258Z,20.47
2019-06-10T18:16:48.209Z,20.58
2019-06-10T18:17:48.216Z,20.37
2019-06-10T18:18:48.293Z,20.48
2019-06-10T18:19:48.187Z,20.44
2019-06-10T18:20:48.201Z,20.41
2019-06-10T18:21:48.156Z,20.39
2019-06-10T18:22:48.151Z,20.34
2019-06-10T18:23:48.199Z,20.37
2019-06-10T18:24:48.179Z,20.32
2019-06-10T18:25:48.507Z,20.37
2019-06-10T18:26:48.095Z,20.36
2019-06-10T18:27:48.087Z,20.28
2019-06-10T18:29:00.269Z,20.25
2019-06-10T18:29:49.110Z,20.28
2019-06-10T18:30:48.076Z,20.32
2019-06-10T18:31:48.125Z,20.22
2019-06-10T18:32:48.035Z,20.24
2019-06-10T18:33:48.059Z,20.14
2019-06-10T18:34:48.017Z,20.16
2019-06-10T18:35:48.039Z,20.21
2019-06-10T18:36:47.999Z,20.16
2019-06-10T18:37:47.996Z,20.13
2019-06-10T18:38:47.969Z,20.18
2019-06-10T18:39:48.000Z,20.14
2019-06-10T18:40:47.953Z,20.00
2019-06-10T18:41:47.945Z,20.06
2019-06-10T18:42:47.923Z,20.04
2019-06-10T18:43:47.958Z,20.03
2019-06-10T18:44:48.092Z,19.99
2019-06-10T18:45:47.943Z,20.02
2019-06-10T18:46:47.917Z,20.03
2019-06-10T18:47:47.871Z,19.94
2019-06-10T18:48:47.941Z,19.92
2019-06-10T18:49:47.873Z,19.94
2019-06-10T18:50:47.846Z,19.86
2019-06-10T18:51:47.824Z,19.89
2019-06-10T18:52:48.261Z,19.85
2019-06-10T18:53:47.810Z,19.85
2019-06-10T18:54:47.818Z,19.82
2019-06-10T18:55:48.760Z,19.84
2019-06-10T18:56:47.802Z,19.84
2019-06-10T18:57:47.758Z,19.70
2019-06-10T18:58:47.837Z,19.81
2019-06-10T18:59:47.746Z,19.70
2019-06-10T19:00:59.088Z,19.71
2019-06-10T19:01:48.713Z,19.69
2019-06-10T19:02:47.720Z,19.69
2019-06-10T19:03:47.694Z,19.70
2019-06-10T19:04:54.565Z,19.59
2019-06-10T19:05:47.785Z,19.66
2019-06-10T19:06:47.676Z,19.73
2019-06-10T19:07:48.431Z,19.70
2019-06-10T19:08:47.774Z,19.63
2019-06-10T19:09:48.166Z,19.67
2019-06-10T19:10:47.627Z,19.58
2019-06-10T19:11:47.648Z,19.62
2019-06-10T19:12:47.635Z,19.55
2019-06-10T19:13:47.584Z,19.55
2019-06-10T19:14:47.617Z,19.58
2019-06-10T19:15:47.568Z,19.51
2019-06-10T19:16:47.556Z,19.51
2019-06-10T19:17:47.559Z,19.40
2019-06-10T19:18:47.532Z,19.48
2019-06-10T19:19:47.597Z,19.45
2019-06-10T19:20:47.527Z,19.44
2019-06-10T19:22:01.806Z,19.40
2019-06-10T19:22:48.578Z,19.29
2019-06-10T19:23:47.487Z,19.34
2019-06-10T19:24:47.527Z,19.37
2019-06-10T19:25:47.492Z,19.36
2019-06-10T19:26:47.454Z,19.27
2019-06-10T19:27:47.460Z,19.36
2019-06-10T19:28:47.476Z,19.44
2019-06-10T19:29:51.211Z,19.37
2019-06-10T19:30:48.481Z,19.33
2019-06-10T19:31:47.531Z,19.27
2019-06-10T19:32:47.402Z,19.21
2019-06-10T19:33:47.414Z,19.21
2019-06-10T19:34:48.470Z,19.08
2019-06-10T19:35:47.397Z,19.08
2019-06-10T19:36:47.365Z,19.11
2019-06-10T19:37:49.010Z,19.16
2019-06-10T19:38:48.422Z,19.02
2019-06-10T19:39:53.201Z,18.96
2019-06-10T19:40:48.349Z,18.98
2019-06-10T19:41:47.771Z,18.92
2019-06-10T19:42:47.326Z,18.89
2019-06-10T19:43:47.326Z,18.92
2019-06-10T19:44:47.315Z,18.90
2019-06-10T19:45:47.285Z,18.73
2019-06-10T19:46:47.281Z,18.84
2019-06-10T19:47:47.299Z,18.77
2019-06-10T19:48:56.563Z,18.73
2019-06-10T19:49:48.340Z,18.74
2019-06-10T19:50:50.439Z,18.70
2019-06-10T19:51:48.219Z,18.68
2019-06-10T19:52:47.201Z,18.66
2019-06-10T19:53:47.229Z,18.62
2019-06-10T19:54:47.607Z,18.68
2019-06-10T19:55:47.177Z,18.66
2019-06-10T19:56:47.220Z,18.68
2019-06-10T19:57:47.111Z,18.68
2019-06-10T19:58:47.201Z,18.60
2019-06-10T20:00:03.529Z,18.58
2019-06-10T20:00:51.147Z,18.60
2019-06-10T20:01:48.915Z,18.74
2019-06-10T20:02:47.110Z,18.66
2019-06-10T20:03:47.190Z,18.70
2019-06-10T20:04:47.154Z,18.70
2019-06-10T20:05:47.416Z,18.73
2019-06-10T20:06:50.380Z,18.70
2019-06-10T20:07:50.382Z,18.75
2019-06-10T20:08:47.998Z,18.70
2019-06-10T20:09:47.005Z,18.63
2019-06-10T20:10:47.115Z,18.59
2019-06-10T20:11:47.509Z,18.59
2019-06-10T20:12:46.995Z,18.37
2019-06-10T20:13:46.998Z,18.41
2019-06-10T20:14:47.911Z,18.25
2019-06-10T20:15:48.389Z,18.11
2019-06-10T20:16:48.118Z,18.01
2019-06-10T20:17:47.916Z,17.89
2019-06-10T20:18:48.239Z,17.80
2019-06-10T20:19:48.166Z,17.80
2019-06-10T20:20:47.632Z,17.67
2019-06-10T20:21:47.042Z,17.59
2019-06-10T20:22:48.117Z,17.59
2019-06-10T20:23:47.879Z,17.59
2019-06-10T20:24:46.976Z,17.65
2019-06-10T20:25:47.018Z,17.51
2019-06-10T20:26:48.099Z,17.48
2019-06-10T20:27:47.944Z,17.45
2019-06-10T20:28:52.215Z,17.42
2019-06-10T20:30:03.731Z,17.39
2019-06-10T20:30:49.150Z,17.36
2019-06-10T20:31:47.552Z,17.30
2019-06-10T20:32:51.634Z,17.36
2019-06-10T20:33:48.504Z,17.44
2019-06-10T20:34:46.754Z,17.36
2019-06-10T20:35:46.799Z,17.30
2019-06-10T20:36:46.998Z,17.26
2019-06-10T20:37:47.348Z,17.20
2019-06-10T20:38:48.676Z,17.19
2019-06-10T20:39:47.817Z,17.16
2019-06-10T20:40:48.766Z,17.09
2019-06-10T20:41:50.485Z,17.01
2019-06-10T20:42:48.717Z,17.05
2019-06-10T20:43:47.316Z,16.96
2019-06-10T20:44:47.837Z,17.01
2019-06-10T20:45:47.981Z,16.99
2019-06-10T20:46:48.091Z,16.96
2019-06-10T20:47:47.988Z,16.96
2019-06-10T20:48:49.340Z,16.94
2019-06-10T20:49:50.825Z,16.93
2019-06-10T20:50:49.812Z,16.94
2019-06-10T20:52:01.393Z,16.97
2019-06-10T20:52:49.010Z,16.89
2019-06-10T20:53:47.993Z,16.93
2019-06-10T20:54:48.268Z,16.99
2019-06-10T20:55:51.036Z,16.94
2019-06-10T20:56:50.218Z,16.97
2019-06-10T20:57:56.251Z,16.90
2019-06-10T20:58:48.364Z,16.91
2019-06-10T20:59:48.140Z,16.91
2019-06-10T21:00:51.868Z,16.91
2019-06-10T21:01:49.097Z,16.99
2019-06-10T21:02:48.631Z,16.96
2019-06-10T21:03:47.634Z,16.97
2019-06-10T21:04:47.097Z,16.99
2019-06-10T21:05:47.688Z,17.04
2019-06-10T21:06:47.399Z,17.01
2019-06-10T21:07:47.225Z,17.06
2019-06-10T21:08:49.270Z,17.04
2019-06-10T21:09:47.472Z,17.12
2019-06-10T21:10:48.401Z,17.15
2019-06-10T21:11:48.252Z,17.16
2019-06-10T21:12:48.275Z,17.16
2019-06-10T21:13:49.271Z,17.19
2019-06-10T21:14:47.226Z,17.11
2019-06-10T21:15:49.987Z,17.26
2019-06-10T21:16:46.485Z,17.29
2019-06-10T21:17:47.530Z,17.29
2019-06-10T21:18:48.756Z,17.26
2019-06-10T21:19:47.566Z,17.34
2019-06-10T21:20:49.556Z,17.31
2019-06-10T21:21:49.530Z,17.39
2019-06-10T21:22:47.527Z,17.41
2019-06-10T21:23:47.543Z,17.38
2019-06-10T21:24:46.608Z,17.34
2019-06-10T21:25:50.330Z,17.33
2019-06-10T21:26:47.086Z,17.36
2019-06-10T21:27:46.788Z,17.23
2019-06-10T21:28:48.952Z,17.24
2019-06-10T21:29:48.709Z,17.19
2019-06-10T21:30:49.611Z,17.23
2019-06-10T21:31:48.649Z,17.16
2019-06-10T21:32:47.440Z,17.14
2019-06-10T21:33:49.077Z,17.09
2019-06-10T21:34:47.418Z,16.97
2019-06-10T21:35:47.478Z,16.97
2019-06-10T21:36:47.326Z,16.97
2019-06-10T21:37:47.179Z,17.01
2019-06-10T21:38:48.159Z,16.99
2019-06-10T21:39:47.697Z,16.94
2019-06-10T21:40:48.135Z,16.97
2019-06-10T21:41:48.241Z,17.02
2019-06-10T21:42:47.937Z,17.01
2019-06-10T21:43:49.840Z,17.12
2019-06-10T21:44:47.972Z,17.04
2019-06-10T21:45:51.166Z,17.05
2019-06-10T21:46:47.601Z,16.99
2019-06-10T21:47:47.115Z,16.99
2019-06-10T21:48:47.380Z,16.97
2019-06-10T21:49:46.969Z,16.97
2019-06-10T21:50:48.101Z,16.96
2019-06-10T21:51:48.965Z,16.94
2019-06-10T21:52:47.246Z,16.86
2019-06-10T21:53:46.597Z,16.75
2019-06-10T21:54:46.770Z,16.72
2019-06-10T21:55:46.649Z,16.65
2019-06-10T21:56:47.084Z,16.64
2019-06-10T21:57:47.094Z,16.57
2019-06-10T21:58:46.871Z,16.54
2019-06-10T21:59:46.952Z,16.50
2019-06-10T22:00:55.542Z,16.49
2019-06-10T22:01:47.564Z,16.36
2019-06-10T22:02:47.095Z,16.38
2019-06-10T22:03:51.115Z,16.29
2019-06-10T22:04:47.854Z,16.29
2019-06-10T22:05:47.511Z,16.28
2019-06-10T22:06:45.793Z,16.23
2019-06-10T22:07:45.837Z,16.24
2019-06-10T22:08:45.790Z,16.23
2019-06-10T22:09:45.742Z,16.16
2019-06-10T22:10:45.949Z,16.08
2019-06-10T22:11:45.938Z,16.08
2019-06-10T22:12:45.981Z,16.00
2019-06-10T22:13:46.135Z,15.97
2019-06-10T22:14:46.138Z,15.90
2019-06-10T22:15:46.374Z,15.91
2019-06-10T22:16:46.263Z,15.92
2019-06-10T22:17:46.243Z,15.92
2019-06-10T22:18:46.566Z,15.82
2019-06-10T22:19:46.558Z,15.88
2019-06-10T22:20:46.723Z,15.88
2019-06-10T22:21:46.444Z,15.84
2019-06-10T22:22:46.544Z,15.83
2019-06-10T22:23:46.677Z,15.84
2019-06-10T22:24:46.637Z,15.79
2019-06-10T22:25:46.746Z,15.86
2019-06-10T22:26:46.813Z,15.82
2019-06-10T22:27:47.827Z,15.82
2019-06-10T22:28:45.516Z,15.83
2019-06-10T22:29:45.472Z,15.86
2019-06-10T22:30:45.495Z,15.82
2019-06-10T22:31:45.478Z,15.83
2019-06-10T22:32:45.529Z,15.80
2019-06-10T22:33:45.492Z,15.83
2019-06-10T22:34:45.477Z,15.80
2019-06-10T22:35:45.476Z,15.75
2019-06-10T22:36:45.524Z,15.83
2019-06-10T22:37:45.663Z,15.82
2019-06-10T22:38:45.743Z,15.82
2019-06-10T22:39:45.680Z,15.76
2019-06-10T22:40:45.396Z,15.75
2019-06-10T22:41:45.374Z,15.77
2019-06-10T22:42:45.426Z,15.65
2019-06-10T22:43:45.343Z,15.67
2019-06-10T22:44:45.339Z,15.72
2019-06-10T22:45:45.345Z,15.72
2019-06-10T22:46:45.326Z,15.68
2019-06-10T22:47:45.388Z,15.68
2019-06-10T22:48:45.303Z,15.64
2019-06-10T22:49:45.296Z,15.52
2019-06-10T22:50:45.316Z,15.55
2019-06-10T22:51:45.316Z,15.52
2019-06-10T22:52:45.319Z,15.47
2019-06-10T22:53:45.290Z,15.46
2019-06-10T22:54:45.232Z,15.40
2019-06-10T22:55:45.254Z,15.57
2019-06-10T22:56:45.198Z,15.55
2019-06-10T22:57:45.170Z,15.57
2019-06-10T22:58:45.246Z,15.62
2019-06-10T22:59:45.992Z,15.67
2019-06-10T23:00:46.037Z,15.68
2019-06-10T23:01:45.189Z,15.84
2019-06-10T23:02:45.159Z,15.80
2019-06-10T23:03:45.232Z,15.86
2019-06-10T23:04:45.136Z,15.91
2019-06-10T23:05:45.122Z,15.80
2019-06-10T23:06:45.096Z,15.91
2019-06-10T23:07:45.106Z,16.00
2019-06-10T23:08:45.211Z,15.98
2019-06-10T23:09:45.082Z,15.98
2019-06-10T23:10:47.012Z,16.02
2019-06-10T23:11:46.078Z,16.02
2019-06-10T23:12:45.067Z,16.04
2019-06-10T23:13:45.153Z,16.02
2019-06-10T23:14:44.997Z,16.00
2019-06-10T23:15:45.005Z,16.05
2019-06-10T23:16:45.517Z,16.10
2019-06-10T23:17:44.944Z,16.16
2019-06-10T23:18:45.041Z,16.05
2019-06-10T23:19:44.970Z,16.13
2019-06-10T23:20:44.938Z,16.10
2019-06-10T23:21:44.922Z,16.04
2019-06-10T23:22:44.922Z,16.01
2019-06-10T23:23:44.967Z,15.97
2019-06-10T23:24:44.913Z,15.90
2019-06-10T23:25:44.930Z,15.82
2019-06-10T23:26:44.936Z,15.83
2019-06-10T23:27:44.883Z,15.84
2019-06-10T23:28:44.935Z,15.82
2019-06-10T23:29:44.887Z,15.80
2019-06-10T23:30:44.843Z,15.75
2019-06-10T23:31:51.762Z,15.67
2019-06-10T23:32:45.846Z,15.70
2019-06-10T23:33:45.006Z,15.70
2019-06-10T23:34:44.820Z,15.73
2019-06-10T23:35:47.560Z,15.64
2019-06-10T23:36:44.817Z,15.72
2019-06-10T23:37:44.758Z,15.79
2019-06-10T23:38:44.838Z,15.75
2019-06-10T23:39:44.716Z,15.90
2019-06-10T23:40:44.792Z,15.88
2019-06-10T23:41:44.729Z,15.98
2019-06-10T23:42:44.725Z,15.97
2019-06-10T23:43:44.705Z,15.95
2019-06-10T23:44:44.741Z,15.97
2019-06-10T23:45:44.683Z,16.01
2019-06-10T23:46:44.703Z,16.02
2019-06-10T23:47:44.659Z,16.01
2019-06-10T23:48:44.689Z,16.04
2019-06-10T23:49:44.695Z,16.01
2019-06-10T23:50:44.625Z,16.01
2019-06-10T23:51:45.511Z,16.04
2019-06-10T23:52:45.540Z,16.01
2019-06-10T23:53:44.604Z,15.86
2019-06-10T23:54:44.614Z,15.94
2019-06-10T23:55:44.575Z,15.84
2019-06-10T23:56:44.566Z,15.83
2019-06-10T23:57:44.567Z,15.80
2019-06-10T23:58:44.535Z,15.73
2019-06-10T23:59:44.609Z,15.75
